Terminal Aerodrome Forecast
Issued by NWS Sterling, VA

Current Version | Previous Version | Graphics & Text | Print | Product List | Glossary On
Versions: 1 2 3 4 5 6 7 8 9 10 11 12 13 14 15 16 17 18 19 20 21 22 23 24 25 26 27 28 29 30 31 32 33 34
582
FTUS41 KLWX 222141 AAB
TAFDCA
TAF AMD
KDCA 222141Z 2222/2318 26008KT 6SM -TSRA BKN050CB
      TEMPO 2222/2223 33015G30KT 2SM -TSRA BKN025CB
     FM230000 27006KT 4SM -TSRA BKN060CB
     FM230300 23006KT 3SM -TSRA BKN060CB
     FM230600 24006KT P6SM VCTS BKN060CB
     FM230800 24006KT P6SM BKN070=

USA.gov is the U.S. government's official web portal to all federal, state and local government web resources and services.